Time;durP1;ratioP1;P1;durP2;ratioP2;P2;SDS_P1;SDS_P2;PMS_P1;PMS_P2;Temp;Humidity;BMP_temperature;BMP_pressure;BME280_temperature;BME280_humidity;BME280_pressure;Samples;Min_cycle;Max_cycle;Signal;HPM_P1;HPM_P2
2022/07/03 00:00:53;;;;;;;5.47;2.30;;;;;;;16.13;100.00;100069.14;1758573;81;21094;-62
2022/07/03 00:03:19;;;;;;;;;;;;;;;16.17;100.00;100061.93;1765837;81;21720;-60
2022/07/03 00:05:47;;;;;;;7.55;2.80;;;;;;;16.19;100.00;100054.78;1761657;80;20437;-62
2022/07/03 00:08:14;;;;;;;5.83;2.70;;;;;;;16.14;100.00;100054.30;1752414;81;21074;-62
2022/07/03 00:10:40;;;;;;;;;;;;;;;16.19;100.00;100050.66;1752567;81;21014;-62
2022/07/03 00:13:07;;;;;;;6.17;2.77;;;;;;;16.21;100.00;100052.53;1758059;80;20092;-62
2022/07/03 00:15:33;;;;;;;;;;;;;;;16.11;100.00;100056.83;1768077;81;20992;-61
2022/07/03 00:17:59;;;;;;;5.80;2.57;;;;;;;16.08;100.00;100054.69;1765875;80;20388;-61
2022/07/03 00:20:26;;;;;;;6.20;2.80;;;;;;;15.99;100.00;100055.91;1736532;81;21017;-61
2022/07/03 00:22:53;;;;;;;5.80;2.67;;;;;;;15.97;100.00;100062.27;1754946;81;21011;-61
2022/07/03 00:25:19;;;;;;;5.58;2.52;;;;;;;15.96;100.00;100066.12;1762937;80;21400;-61
2022/07/03 00:27:46;;;;;;;4.60;2.55;;;;;;;15.94;100.00;100058.76;1752299;80;20962;-61
2022/07/03 00:30:13;;;;;;;7.10;3.10;;;;;;;15.87;100.00;100053.63;1760835;80;21015;-61
2022/07/03 00:32:39;;;;;;;9.70;3.12;;;;;;;15.77;100.00;100052.97;1754672;80;20993;-61
2022/07/03 00:35:07;;;;;;;8.15;3.15;;;;;;;15.69;100.00;100058.60;1744581;80;21584;-61
2022/07/03 00:37:33;;;;;;;7.15;3.37;;;;;;;15.65;100.00;100058.11;1750718;80;20997;-61
2022/07/03 00:40:00;;;;;;;5.78;3.20;;;;;;;15.61;100.00;100052.95;1756345;80;21038;-61
2022/07/03 00:42:28;;;;;;;6.78;3.37;;;;;;;15.58;100.00;100055.74;1749886;81;20981;-61
2022/07/03 00:44:56;;;;;;;5.50;3.02;;;;;;;15.57;100.00;100054.10;1755458;80;21052;-60
2022/07/03 00:47:25;;;;;;;7.80;3.72;;;;;;;15.53;100.00;100052.23;1728558;81;20964;-60
2022/07/03 00:49:55;;;;;;;7.85;3.50;;;;;;;15.43;100.00;100057.30;1768138;80;21585;-61
2022/07/03 00:52:23;;;;;;;9.30;3.70;;;;;;;15.35;100.00;100057.39;1748745;81;21025;-61
2022/07/03 00:54:58;;;;;;;8.53;4.12;;;;;;;15.31;100.00;100053.61;1756063;80;21088;-61
2022/07/03 00:57:27;;;;;;;7.78;3.80;;;;;;;15.31;100.00;100049.50;1755485;80;21516;-61
2022/07/03 00:59:55;;;;;;;9.03;4.00;;;;;;;15.30;100.00;100053.34;1740120;80;21042;-61
2022/07/03 01:02:42;;;;;;;11.30;4.00;;;;;;;15.27;100.00;100049.81;1751238;80;21624;-61
2022/07/03 01:05:44;;;;;;;9.43;4.00;;;;;;;15.23;100.00;100050.14;1762173;81;21118;-61
2022/07/03 01:08:43;;;;;;;6.85;3.65;;;;;;;15.15;100.00;100048.08;1748582;81;21092;-61
2022/07/03 01:11:35;;;;;;;6.42;3.45;;;;;;;15.08;100.00;100059.14;1736981;80;21042;-60
2022/07/03 01:14:38;;;;;;;5.50;3.05;;;;;;;15.04;100.00;100046.58;1739381;81;21411;-60
2022/07/03 01:17:08;;;;;;;8.80;3.55;;;;;;;15.06;100.00;100052.56;1747967;81;21084;-60
2022/07/03 01:19:41;;;;;;;6.83;3.52;;;;;;;14.98;100.00;100040.91;1732855;81;21091;-61
2022/07/03 01:22:43;;;;;;;7.40;3.00;;;;;;;14.93;100.00;100047.80;1746275;81;21016;-61
2022/07/03 01:25:25;;;;;;;7.37;3.40;;;;;;;14.87;100.00;100055.84;1706295;81;21094;-61
2022/07/03 01:28:16;;;;;;;7.67;3.10;;;;;;;14.85;100.00;100049.27;1737448;81;21420;-60
2022/07/03 01:30:49;;;;;;;7.92;3.17;;;;;;;14.86;100.00;100039.12;1753908;81;21476;-61
2022/07/03 01:33:20;;;;;;;7.87;3.52;;;;;;;14.85;100.00;100038.30;1742727;80;21056;-60
2022/07/03 01:36:08;;;;;;;9.65;3.15;;;;;;;14.82;100.00;100040.81;1745844;81;21566;-61
2022/07/03 01:38:37;;;;;;;7.40;2.95;;;;;;;14.76;100.00;100039.25;1749531;81;21025;-61
2022/07/03 01:41:07;;;;;;;7.05;2.83;;;;;;;14.77;100.00;100042.26;1755870;81;21015;-61
2022/07/03 01:43:47;;;;;;;6.35;2.62;;;;;;;14.82;100.00;100046.29;1747294;80;21494;-61
2022/07/03 01:46:14;;;;;;;5.33;2.70;;;;;;;14.83;100.00;100044.64;1751634;80;21039;-61
2022/07/03 01:48:43;;;;;;;5.80;2.92;;;;;;;14.82;100.00;100043.55;1750809;81;21067;-61
2022/07/03 01:51:13;;;;;;;6.03;2.77;;;;;;;14.80;100.00;100043.04;1747246;81;21017;-61
2022/07/03 01:53:47;;;;;;;4.92;2.80;;;;;;;14.78;100.00;100044.69;1679388;84;21419;-61
2022/07/03 01:56:16;;;;;;;5.58;3.25;;;;;;;14.80;100.00;100045.78;1749092;80;20987;-61
2022/07/03 01:58:43;;;;;;;5.17;2.80;;;;;;;14.85;100.00;100045.70;1748979;81;21070;-61
2022/07/03 02:01:35;;;;;;;6.35;3.30;;;;;;;14.88;100.00;100046.48;1750177;81;21039;-61
2022/07/03 02:04:06;;;;;;;5.22;3.42;;;;;;;14.86;100.00;100042.68;1740096;81;21165;-61
2022/07/03 02:06:41;;;;;;;7.53;3.50;;;;;;;14.78;100.00;100063.87;1749680;81;22161;-61
2022/07/03 02:09:09;;;;;;;8.68;3.52;;;;;;;14.75;100.00;100063.09;1757892;81;21052;-61
2022/07/03 02:11:40;;;;;;;7.75;3.87;;;;;;;14.76;100.00;100066.65;1757651;81;20988;-61
2022/07/03 02:14:14;;;;;;;8.90;3.92;;;;;;;14.78;100.00;100067.16;1749929;80;21485;-61
2022/07/03 02:17:10;;;;;;;8.23;3.60;;;;;;;14.80;100.00;100069.08;1753295;81;21331;-61
2022/07/03 02:20:00;;;;;;;7.97;3.62;;;;;;;14.80;100.00;100065.78;1753010;81;21123;-61
2022/07/03 02:22:42;;;;;;;6.62;3.92;;;;;;;14.78;100.00;100060.31;1737055;81;20994;-61
2022/07/03 02:25:26;;;;;;;8.95;3.25;;;;;;;14.77;100.00;100058.70;1715712;82;21062;-61
2022/07/03 02:27:57;;;;;;;6.47;3.60;;;;;;;14.81;100.00;100059.17;1758038;80;21466;-61
2022/07/03 02:30:26;;;;;;;6.00;3.33;;;;;;;14.90;100.00;100055.25;1711398;82;21127;-61
2022/07/03 02:32:52;;;;;;;6.45;3.05;;;;;;;14.98;100.00;100055.16;1747143;81;21622;-61
2022/07/03 02:35:29;;;;;;;5.53;3.10;;;;;;;15.04;100.00;100053.98;1746220;81;21103;-62
2022/07/03 02:38:10;;;;;;;5.33;3.30;;;;;;;15.04;100.00;100052.06;1749747;80;20999;-60
2022/07/03 02:41:17;;;;;;;5.00;2.60;;;;;;;15.04;100.00;100049.31;1734282;81;21719;-60
2022/07/03 02:44:01;;;;;;;5.55;2.52;;;;;;;15.10;100.00;100048.13;1757204;81;21064;-60
2022/07/03 02:46:48;;;;;;;5.40;2.90;;;;;;;15.21;100.00;100044.16;1753323;81;21061;-61
2022/07/03 02:49:59;;;;;;;3.77;2.50;;;;;;;15.29;100.00;100046.80;1735298;81;21056;-61
2022/07/03 02:52:49;;;;;;;4.20;2.35;;;;;;;15.33;100.00;100043.73;1751430;81;21031;-61
2022/07/03 02:55:45;;;;;;;5.03;2.65;;;;;;;15.37;100.00;100040.66;1752870;81;21597;-60
2022/07/03 02:59:04;;;;;;;5.90;2.23;;;;;;;15.43;100.00;100036.17;1744980;80;21040;-60
2022/07/03 03:01:47;;;;;;;3.87;2.27;;;;;;;15.56;100.00;100035.18;1745324;81;20994;-60
2022/07/03 03:04:31;;;;;;;8.08;2.50;;;;;;;15.75;100.00;100040.11;1731367;82;21463;-60
2022/07/03 03:07:18;;;;;;;6.72;2.50;;;;;;;15.84;100.00;100029.52;1739079;81;21016;-60
2022/07/03 03:09:46;;;;;;;3.47;2.17;;;;;;;15.90;100.00;100035.20;1752723;80;21074;-60
2022/07/03 03:12:15;;;;;;;5.58;1.98;;;;;;;16.01;100.00;100036.41;1721877;81;21566;-60
2022/07/03 03:14:44;;;;;;;5.08;2.10;;;;;;;16.13;100.00;100033.44;1748420;81;21102;-60
2022/07/03 03:17:19;;;;;;;7.60;2.00;;;;;;;16.29;100.00;100033.44;1751155;81;21420;-60
2022/07/03 03:19:49;;;;;;;5.55;1.65;;;;;;;16.58;100.00;100027.69;1749341;81;21090;-60
2022/07/03 03:23:05;;;;;;;5.72;1.80;;;;;;;17.02;100.00;100022.14;1739407;81;21968;-60
2022/07/03 03:25:32;;;;;;;3.52;2.00;;;;;;;17.46;100.00;100017.33;1739818;81;21091;-61
2022/07/03 03:28:00;;;;;;;4.75;1.90;;;;;;;18.03;100.00;100019.83;1744722;81;21061;-60
2022/07/03 03:30:27;;;;;;;4.65;1.80;;;;;;;18.49;100.00;100018.07;1723868;81;21014;-61
2022/07/03 03:32:53;;;;;;;4.40;1.60;;;;;;;18.97;100.00;100016.73;1739641;81;21601;-60
2022/07/03 03:35:20;;;;;;;6.25;2.15;;;;;;;19.37;100.00;100009.44;1749859;80;21059;-61
2022/07/03 03:37:50;;;;;;;5.62;1.57;;;;;;;19.77;100.00;100005.95;1733185;81;21016;-61
2022/07/03 03:40:17;;;;;;;4.60;1.60;;;;;;;20.08;100.00;99999.43;1746456;81;21047;-61
2022/07/03 03:42:43;;;;;;;3.42;1.60;;;;;;;20.41;100.00;99992.77;1669933;84;21028;-61
2022/07/03 03:45:10;;;;;;;4.28;1.50;;;;;;;20.80;100.00;99996.59;1743121;81;21511;-61
2022/07/03 03:47:37;;;;;;;5.90;1.90;;;;;;;21.19;100.00;100000.38;1747492;81;21055;-61
2022/07/03 03:50:05;;;;;;;2.12;1.52;;;;;;;21.59;100.00;100002.70;1738190;81;21097;-61
2022/07/03 03:52:32;;;;;;;3.17;1.70;;;;;;;21.97;100.00;99997.00;1753613;80;21016;-62
2022/07/03 03:54:59;;;;;;;6.28;2.05;;;;;;;22.27;100.00;99992.38;1767151;80;22057;-61
2022/07/03 03:57:25;;;;;;;4.97;1.55;;;;;;;22.59;100.00;99995.42;1732273;80;20962;-61
2022/07/03 03:59:52;;;;;;;3.65;1.80;;;;;;;22.85;100.00;99995.13;1745859;82;20964;-62
2022/07/03 04:02:19;;;;;;;5.50;1.60;;;;;;;23.03;100.00;100000.08;1747201;80;20941;-61
2022/07/03 04:04:45;;;;;;;3.05;1.67;;;;;;;23.20;100.00;99991.49;1711346;82;21026;-62
2022/07/03 04:07:12;;;;;;;3.35;1.87;;;;;;;23.42;100.00;99997.16;1739907;82;20960;-62
2022/07/03 04:09:39;;;;;;;6.30;1.80;;;;;;;23.84;100.00;99988.47;1750465;81;21522;-62
2022/07/03 04:12:06;;;;;;;4.15;1.75;;;;;;;23.84;100.00;99988.47;1738733;81;21047;-62
2022/07/03 04:14:33;;;;;;;5.85;1.80;;;;;;;24.33;100.00;99980.70;1759430;80;21034;-62
2022/07/03 04:17:00;;;;;;;2.55;1.40;;;;;;;24.33;100.00;99980.70;1747769;81;21780;-62
2022/07/03 04:19:27;;;;;;;4.85;1.60;;;;;;;24.51;100.00;99988.94;1734711;81;21007;-62
2022/07/03 04:21:54;;;;;;;3.00;1.47;;;;;;;24.67;100.00;99974.42;1736314;81;21022;-61
2022/07/03 04:24:21;;;;;;;6.12;2.00;;;;;;;24.72;100.00;99976.38;1745539;80;21520;-62
2022/07/03 04:26:47;;;;;;;4.50;1.67;;;;;;;24.85;100.00;99979.88;1739310;80;21522;-62
2022/07/03 04:29:14;;;;;;;5.65;1.70;;;;;;;24.88;100.00;99974.98;1742412;80;21026;-62
2022/07/03 04:31:40;;;;;;;4.70;1.77;;;;;;;24.93;100.00;99970.53;1745659;81;20990;-61
2022/07/03 04:34:06;;;;;;;4.97;2.00;;;;;;;25.02;100.00;99973.92;1746067;81;21027;-62
2022/07/03 04:36:33;;;;;;;3.22;1.80;;;;;;;25.12;100.00;99970.56;1740965;80;21024;-62
2022/07/03 04:39:00;;;;;;;2.83;1.82;;;;;;;25.21;100.00;99968.98;1737898;80;21086;-62
2022/07/03 04:41:26;;;;;;;4.87;1.90;;;;;;;25.32;100.00;99969.22;1745886;82;21509;-62
2022/07/03 04:43:53;;;;;;;5.85;1.92;;;;;;;25.48;100.00;99965.78;1748578;81;21537;-63
2022/07/03 04:46:21;;;;;;;4.65;1.90;;;;;;;25.56;100.00;99968.39;1741028;80;21515;-62
2022/07/03 04:48:47;;;;;;;4.37;1.72;;;;;;;25.61;100.00;99963.91;1753587;80;21004;-62
2022/07/03 04:51:14;;;;;;;2.77;1.50;;;;;;;25.75;95.07;99960.63;1734211;81;21609;-62
2022/07/03 04:53:41;;;;;;;4.30;1.77;;;;;;;25.92;94.42;99959.36;1743564;81;21554;-62
2022/07/03 04:56:07;;;;;;;3.40;1.60;;;;;;;26.16;92.82;99962.62;1757189;81;21949;-63
2022/07/03 04:58:34;;;;;;;4.78;1.70;;;;;;;26.47;88.10;99966.38;1761090;80;21011;-62
2022/07/03 05:01:00;;;;;;;2.50;1.45;;;;;;;26.66;86.52;99961.54;1753715;81;21009;-62
2022/07/03 05:03:27;;;;;;;3.37;1.32;;;;;;;26.77;84.77;99963.11;1750840;81;21110;-62
2022/07/03 05:05:53;;;;;;;3.62;1.27;;;;;;;26.91;77.19;99959.77;1759069;81;21470;-62
2022/07/03 05:08:20;;;;;;;3.83;1.07;;;;;;;27.10;70.22;99952.06;1741797;80;21054;-62
2022/07/03 05:10:47;;;;;;;3.80;1.10;;;;;;;27.29;69.29;99957.31;1726976;81;21019;-64
2022/07/03 05:13:14;;;;;;;4.75;1.05;;;;;;;27.55;60.74;99957.31;1754437;81;21499;-62
2022/07/03 05:15:40;;;;;;;4.37;1.27;;;;;;;27.74;59.75;99960.55;1754769;82;20979;-63
2022/07/03 05:18:07;;;;;;;4.12;1.20;;;;;;;27.75;56.40;99963.53;1744530;80;20992;-63
2022/07/03 05:20:35;;;;;;;6.62;1.30;;;;;;;27.70;56.79;99957.70;1743983;80;21004;-63
2022/07/03 05:23:02;;;;;;;4.78;1.00;;;;;;;27.78;58.54;99959.97;1749703;81;21055;-63
2022/07/03 05:25:30;;;;;;;3.62;1.12;;;;;;;27.97;57.89;99959.22;1750416;81;21071;-63
2022/07/03 05:27:58;;;;;;;3.35;1.20;;;;;;;28.17;58.70;99962.64;1743968;81;21080;-63
2022/07/03 05:30:25;;;;;;;3.70;1.10;;;;;;;28.21;58.56;99959.88;1748485;80;21468;-64
2022/07/03 05:32:54;;;;;;;3.33;1.12;;;;;;;28.28;58.21;99958.55;1746366;81;21422;-62
2022/07/03 05:35:20;;;;;;;4.37;1.10;;;;;;;28.12;53.44;99965.80;1759820;81;20999;-62
2022/07/03 05:37:47;;;;;;;4.62;1.12;;;;;;;27.97;53.96;99963.41;1742775;81;21022;-62
2022/07/03 05:40:14;;;;;;;4.95;1.17;;;;;;;27.96;55.63;99965.98;1742960;80;20983;-62
2022/07/03 05:42:40;;;;;;;3.52;1.22;;;;;;;27.94;54.50;99960.58;1753180;81;20996;-62
2022/07/03 05:45:08;;;;;;;2.33;1.20;;;;;;;27.92;52.87;99960.94;1758288;81;21070;-62
2022/07/03 05:47:35;;;;;;;3.42;1.20;;;;;;;27.79;54.08;99963.80;1740933;81;21007;-62
2022/07/03 05:50:02;;;;;;;1.95;1.40;;;;;;;27.65;57.07;99961.64;1731429;81;21712;-62
2022/07/03 05:52:29;;;;;;;3.27;1.12;;;;;;;27.63;60.42;99961.20;1748107;80;21043;-62
2022/07/03 05:54:55;;;;;;;3.00;1.32;;;;;;;27.54;60.73;99960.69;1757103;81;21098;-62
2022/07/03 05:57:22;;;;;;;3.40;1.40;;;;;;;27.46;61.99;99949.78;1744782;81;21019;-62
2022/07/03 05:59:48;;;;;;;4.22;1.22;;;;;;;27.42;62.34;99951.73;1742551;81;21036;-62
2022/07/03 06:02:15;;;;;;;4.72;1.55;;;;;;;27.55;60.43;99955.91;1742265;80;21031;-62
2022/07/03 06:04:41;;;;;;;3.37;1.20;;;;;;;27.49;59.17;99951.84;1744242;81;21020;-62
2022/07/03 06:07:08;;;;;;;2.40;1.20;;;;;;;27.45;62.27;99949.59;1688628;84;21550;-61
2022/07/03 06:09:35;;;;;;;5.17;1.50;;;;;;;27.64;62.15;99951.62;1736206;81;21023;-62
2022/07/03 06:12:02;;;;;;;3.22;1.32;;;;;;;27.98;62.41;99951.62;1733722;81;20984;-62
2022/07/03 06:14:29;;;;;;;3.62;1.52;;;;;;;28.40;59.72;99952.68;1746488;80;21072;-62
2022/07/03 06:16:55;;;;;;;4.37;1.37;;;;;;;28.77;56.06;99939.41;1745261;81;21575;-64
2022/07/03 06:19:22;;;;;;;3.12;1.50;;;;;;;29.23;53.88;99940.33;1741247;81;21074;-63
2022/07/03 06:21:49;;;;;;;4.37;1.30;;;;;;;29.62;51.46;99941.33;1736310;80;21506;-63
2022/07/03 06:24:16;;;;;;;2.77;1.10;;;;;;;30.00;51.21;99935.09;1748185;80;21059;-64
2022/07/03 06:26:43;;;;;;;4.62;1.40;;;;;;;30.40;51.63;99940.14;1737115;81;21079;-62
2022/07/03 06:29:09;;;;;;;2.75;1.20;;;;;;;30.63;46.40;99939.19;1753268;80;21531;-63
2022/07/03 06:31:36;;;;;;;2.08;1.10;;;;;;;30.84;46.81;99936.96;1742490;81;21114;-63
2022/07/03 06:34:02;;;;;;;1.72;1.02;;;;;;;31.00;42.81;99935.95;1724880;80;21122;-64
2022/07/03 06:36:29;;;;;;;3.80;1.30;;;;;;;31.02;41.72;99935.77;1759539;81;21063;-63
2022/07/03 06:38:56;;;;;;;6.75;1.00;;;;;;;30.94;41.05;99939.76;1749777;80;21501;-63
2022/07/03 06:41:22;;;;;;;2.35;1.12;;;;;;;31.02;42.45;99935.77;1756115;81;21408;-63
2022/07/03 06:43:49;;;;;;;2.55;1.10;;;;;;;31.19;41.01;99942.55;1744004;81;21091;-63
2022/07/03 06:46:16;;;;;;;2.37;1.17;;;;;;;31.26;39.57;99936.91;1748782;80;21668;-63
2022/07/03 06:48:42;;;;;;;2.00;1.02;;;;;;;31.57;41.51;99934.61;1752413;81;21044;-63
2022/07/03 06:51:09;;;;;;;3.80;1.00;;;;;;;31.83;37.48;99933.89;1748519;81;21039;-63
2022/07/03 06:53:36;;;;;;;2.85;1.02;;;;;;;31.81;36.90;99924.47;1751503;81;21645;-64
2022/07/03 06:56:03;;;;;;;2.60;0.95;;;;;;;31.75;36.27;99925.28;1732933;80;21067;-62
2022/07/03 06:58:30;;;;;;;4.87;1.37;;;;;;;31.82;35.70;99920.42;1738631;81;21588;-63
2022/07/03 07:00:56;;;;;;;3.25;1.10;;;;;;;32.19;36.75;99927.47;1745822;81;21003;-63
2022/07/03 07:03:23;;;;;;;2.72;1.15;;;;;;;32.38;34.74;99925.53;1761418;81;21605;-62
2022/07/03 07:05:50;;;;;;;3.40;1.07;;;;;;;32.27;34.75;99929.84;1757185;80;21424;-61
2022/07/03 07:08:17;;;;;;;3.33;1.25;;;;;;;31.96;34.32;99929.39;1757907;81;21095;-61
2022/07/03 07:10:44;;;;;;;2.52;1.10;;;;;;;31.90;35.52;99922.59;1738941;81;21520;-61
2022/07/03 07:13:10;;;;;;;2.25;1.20;;;;;;;32.13;34.94;99925.72;1747511;81;21032;-60
2022/07/03 07:15:37;;;;;;;3.30;1.20;;;;;;;32.06;33.87;99922.31;1742776;80;20976;-60
2022/07/03 07:18:04;;;;;;;3.22;1.20;;;;;;;31.82;34.65;99923.84;1747873;81;21546;-61
2022/07/03 07:20:31;;;;;;;3.58;1.17;;;;;;;31.56;34.00;99922.38;1734732;81;21019;-60
2022/07/03 07:22:58;;;;;;;4.78;1.42;;;;;;;31.40;35.18;99924.80;1739314;81;21131;-61
2022/07/03 07:25:24;;;;;;;3.60;1.47;;;;;;;31.64;35.18;99918.93;1722028;81;21619;-61
2022/07/03 07:27:51;;;;;;;2.90;1.32;;;;;;;31.86;34.88;99923.22;1741607;80;21683;-62
2022/07/03 07:30:18;;;;;;;4.05;1.70;;;;;;;31.96;35.98;99924.56;1745005;81;20982;-62
2022/07/03 07:32:51;;;;;;;2.47;1.20;;;;;;;32.18;35.19;99922.45;1738146;81;21035;-62
2022/07/03 07:35:18;;;;;;;2.08;1.30;;;;;;;32.46;33.48;99917.20;1731324;81;21051;-64
2022/07/03 07:37:48;;;;;;;3.55;1.40;;;;;;;32.92;34.73;99923.25;1749627;80;21009;-64
2022/07/03 07:40:14;;;;;;;3.75;1.50;;;;;;;33.26;33.43;99918.30;1753739;81;21035;-62
2022/07/03 07:42:42;;;;;;;2.12;1.47;;;;;;;33.49;32.66;99914.98;1757587;80;21909;-62
2022/07/03 07:45:10;;;;;;;3.12;1.45;;;;;;;33.58;32.26;99913.07;1742484;81;21035;-63
2022/07/03 07:47:37;;;;;;;2.02;1.25;;;;;;;33.91;34.14;99920.70;1749371;80;21011;-62
2022/07/03 07:50:06;;;;;;;2.02;1.42;;;;;;;34.29;33.64;99920.59;1744926;81;21028;-61
2022/07/03 07:52:33;;;;;;;4.25;1.32;;;;;;;34.65;32.29;99916.59;1750162;81;21510;-62
2022/07/03 07:55:00;;;;;;;3.80;1.15;;;;;;;34.61;33.01;99913.80;1735914;81;21003;-62
2022/07/03 07:57:36;;;;;;;2.72;1.55;;;;;;;34.45;31.08;99915.86;1747179;81;21023;-62
2022/07/03 08:00:16;;;;;;;3.70;1.47;;;;;;;33.95;30.79;99920.04;1749931;80;21940;-62
2022/07/03 08:05:37;;;;;;;5.83;1.80;;;;;;;33.01;34.20;99932.64;1748429;81;21023;-64
2022/07/03 08:08:10;;;;;;;4.20;1.50;;;;;;;32.94;34.56;99932.11;1748166;81;21633;-62
2022/07/03 08:10:44;;;;;;;3.10;1.40;;;;;;;33.23;35.46;99923.38;1751536;80;20983;-62
2022/07/03 08:13:14;;;;;;;2.42;1.60;;;;;;;33.43;34.98;99924.34;1752336;81;21099;-64
2022/07/03 08:15:41;;;;;;;4.50;1.50;;;;;;;33.15;35.09;99921.84;1751734;80;20960;-64
2022/07/03 08:18:14;;;;;;;3.35;1.60;;;;;;;32.55;33.64;99924.59;1744780;81;21014;-62
2022/07/03 08:20:47;;;;;;;5.85;1.87;;;;;;;31.98;34.51;99926.98;1756265;80;21007;-63
2022/07/03 08:23:21;;;;;;;3.58;1.87;;;;;;;31.49;34.89;99923.78;1727637;81;21012;-61
2022/07/03 08:25:49;;;;;;;3.80;2.37;;;;;;;30.96;36.29;99917.66;1743544;81;21079;-62
2022/07/03 08:28:15;;;;;;;5.20;2.80;;;;;;;30.59;36.33;99932.77;1756201;81;21067;-62
2022/07/03 08:30:47;;;;;;;4.67;2.22;;;;;;;30.30;39.17;99933.31;1756708;80;21012;-63
2022/07/03 08:33:15;;;;;;;6.30;2.45;;;;;;;30.23;37.42;99926.29;1754022;81;21529;-62
2022/07/03 08:35:49;;;;;;;2.67;1.75;;;;;;;30.22;39.10;99921.09;1752796;81;21550;-63
2022/07/03 08:38:19;;;;;;;4.83;2.00;;;;;;;30.27;40.05;99924.30;1715314;82;21174;-63
2022/07/03 08:40:46;;;;;;;3.60;2.20;;;;;;;30.27;41.93;99922.89;1758700;81;21016;-62
2022/07/03 08:43:13;;;;;;;2.80;1.90;;;;;;;30.25;42.34;99920.29;1752684;80;21058;-62
2022/07/03 08:45:40;;;;;;;2.55;2.10;;;;;;;30.21;41.29;99916.67;1748252;81;21626;-61
2022/07/03 08:48:07;;;;;;;4.90;2.17;;;;;;;30.03;42.82;99918.85;1755736;80;21063;-62
2022/07/03 08:50:33;;;;;;;5.80;2.20;;;;;;;29.82;44.49;99913.76;1757557;80;21570;-63
2022/07/03 08:53:03;;;;;;;4.15;2.35;;;;;;;29.62;42.72;99918.30;1744705;80;21091;-63
2022/07/03 08:55:29;;;;;;;3.67;2.47;;;;;;;29.39;44.71;99919.21;1756559;81;21059;-61
2022/07/03 08:57:56;;;;;;;6.53;2.42;;;;;;;29.23;45.04;99915.88;1749088;81;21035;-62
2022/07/03 09:00:24;;;;;;;4.17;2.22;;;;;;;29.09;45.44;99919.41;1740005;80;20998;-63
2022/07/03 09:02:50;;;;;;;4.33;2.58;;;;;;;29.04;49.47;99913.39;1741798;80;21066;-62
2022/07/03 09:05:17;;;;;;;4.62;2.22;;;;;;;28.99;50.79;99917.95;1737590;82;20991;-64
2022/07/03 09:07:45;;;;;;;4.05;2.27;;;;;;;28.92;49.41;99915.91;1737261;81;21494;-63
2022/07/03 09:10:15;;;;;;;4.58;2.05;;;;;;;28.79;48.72;99911.83;1738061;81;20963;-63
2022/07/03 09:12:43;;;;;;;4.15;2.27;;;;;;;28.78;50.45;99915.00;1749955;80;21050;-62
2022/07/03 09:15:11;;;;;;;6.17;2.47;;;;;;;28.80;52.93;99917.64;1753178;80;21534;-64
2022/07/03 09:17:42;;;;;;;4.33;2.70;;;;;;;28.78;51.83;99926.21;1724088;82;21029;-64
2022/07/03 09:20:09;;;;;;;5.17;3.20;;;;;;;28.69;52.12;99917.35;1738899;81;21479;-63
2022/07/03 09:22:39;;;;;;;5.78;2.83;;;;;;;28.53;54.47;99920.38;1736136;81;21008;-63
2022/07/03 09:25:10;;;;;;;6.72;4.58;;;;;;;28.41;60.48;99922.88;1751668;80;21555;-63
2022/07/03 12:12:39;;;;;;;7.50;3.22;;;;;;;26.72;100.00;99853.92;1786143;79;22628;-64
2022/07/03 12:15:07;;;;;;;6.22;2.98;;;;;;;26.70;100.00;99852.11;1754783;80;21474;-64
2022/07/03 12:17:35;;;;;;;6.05;3.17;;;;;;;26.70;100.00;99852.11;1737730;81;21011;-64
2022/07/03 12:20:02;;;;;;;6.12;3.50;;;;;;;26.64;100.00;99853.59;1726238;82;21593;-64
2022/07/03 12:22:37;;;;;;;7.10;3.22;;;;;;;26.60;100.00;99854.16;1767663;80;21329;-63
2022/07/03 12:25:10;;;;;;;5.00;3.22;;;;;;;26.76;100.00;99851.19;1718307;81;21037;-63
2022/07/03 12:27:44;;;;;;;4.20;3.30;;;;;;;26.86;100.00;99855.33;1679338;81;21058;-63
2022/07/03 12:30:13;;;;;;;6.90;3.42;;;;;;;26.87;100.00;99843.80;1712522;82;21772;-64
2022/07/03 12:32:40;;;;;;;11.68;3.35;;;;;;;26.94;100.00;99843.89;1670431;84;21544;-63
2022/07/03 12:35:08;;;;;;;7.35;3.27;;;;;;;27.04;100.00;99843.81;1726200;83;21487;-63
2022/07/03 12:37:44;;;;;;;6.05;3.30;;;;;;;27.08;100.00;99840.47;1717486;82;21062;-63
2022/07/03 12:40:13;;;;;;;5.50;3.22;;;;;;;27.09;100.00;99835.11;1710277;83;21532;-64
2022/07/03 12:42:51;;;;;;;6.53;3.22;;;;;;;27.12;100.00;99846.92;1715582;83;21062;-63
2022/07/03 12:45:27;;;;;;;8.75;3.30;;;;;;;27.12;99.18;99840.74;1721097;83;21408;-63
2022/07/03 12:48:05;;;;;;;5.60;3.10;;;;;;;27.06;98.42;99838.08;1704091;82;20995;-64
2022/07/03 12:50:51;;;;;;;5.17;3.10;;;;;;;26.90;92.79;99844.43;1696992;83;20992;-64
2022/07/03 12:53:29;;;;;;;;;;;;;;;26.83;100.00;99845.73;1720013;83;21063;-65
2022/07/03 12:56:02;;;;;;;4.90;3.37;;;;;;;26.78;100.00;99848.03;1695049;82;20151;-64
2022/07/03 13:01:38;;;;;;;6.85;3.67;;;;;;;26.34;100.00;99842.16;1711333;82;21055;-64
2022/07/03 13:04:08;;;;;;;7.85;3.67;;;;;;;25.98;100.00;99845.72;1717737;82;21158;-65
2022/07/03 13:06:35;;;;;;;6.15;3.75;;;;;;;25.75;100.00;99851.27;1713839;82;21042;-64
2022/07/03 13:09:04;;;;;;;6.08;3.30;;;;;;;25.57;100.00;99851.56;1708189;82;21423;-65
2022/07/03 13:11:34;;;;;;;6.22;4.10;;;;;;;25.35;100.00;99857.84;1706335;82;20981;-64
2022/07/03 13:14:05;;;;;;;7.97;4.17;;;;;;;25.14;100.00;99861.00;1681461;84;21530;-64
2022/07/03 13:16:49;;;;;;;8.40;3.30;;;;;;;24.93;100.00;99860.55;1755063;80;21460;-65
2022/07/03 13:19:22;;;;;;;6.08;5.00;;;;;;;24.79;100.00;99867.16;1740921;80;21067;-64
2022/07/03 13:21:50;;;;;;;12.13;6.45;;;;;;;24.69;100.00;99871.90;1735699;80;21494;-65
2022/07/03 13:24:18;;;;;;;7.33;5.75;;;;;;;24.53;100.00;99866.34;1744484;81;21590;-64
2022/07/03 13:26:47;;;;;;;7.80;4.97;;;;;;;24.45;100.00;99880.44;1747937;80;21019;-64
2022/07/03 13:29:15;;;;;;;9.48;5.35;;;;;;;24.39;100.00;99887.45;1702076;80;21583;-64
2022/07/03 13:31:42;;;;;;;10.03;5.00;;;;;;;24.31;100.00;99880.91;1750559;80;21011;-63
2022/07/03 13:34:09;;;;;;;9.83;6.75;;;;;;;24.26;100.00;99886.76;1752128;81;21574;-62
2022/07/03 13:36:36;;;;;;;9.00;5.00;;;;;;;24.21;100.00;99885.05;1753343;81;21066;-62
2022/07/03 13:39:03;;;;;;;7.42;5.00;;;;;;;24.16;100.00;99883.91;1748677;80;21528;-63
2022/07/03 13:41:30;;;;;;;8.70;5.03;;;;;;;24.07;100.00;99886.04;1736393;80;21030;-63
2022/07/03 13:43:57;;;;;;;9.63;5.35;;;;;;;23.93;100.00;99883.47;1749516;81;21069;-63
2022/07/03 13:46:24;;;;;;;9.85;5.60;;;;;;;23.81;100.00;99876.61;1750547;81;21089;-63
2022/07/03 13:48:51;;;;;;;6.55;4.70;;;;;;;23.71;100.00;99891.81;1740304;80;21082;-63
2022/07/03 13:51:19;;;;;;;9.48;5.55;;;;;;;23.56;100.00;99885.66;1738600;80;21081;-63
2022/07/03 13:53:45;;;;;;;6.95;4.80;;;;;;;23.56;100.00;99885.66;1751088;80;21079;-63
2022/07/03 13:56:15;;;;;;;11.20;5.90;;;;;;;23.57;100.00;99883.08;1742751;80;21565;-63
2022/07/03 13:58:41;;;;;;;8.73;5.20;;;;;;;23.58;100.00;99873.02;1750782;82;21640;-62
2022/07/03 14:01:08;;;;;;;7.15;5.47;;;;;;;23.65;100.00;99870.43;1752176;81;21043;-64
2022/07/03 14:03:34;;;;;;;10.35;5.70;;;;;;;23.72;100.00;99870.63;1744505;80;21711;-63
2022/07/03 14:06:01;;;;;;;10.68;5.35;;;;;;;23.88;100.00;99868.45;1744161;80;20999;-62
2022/07/03 14:08:27;;;;;;;9.90;5.20;;;;;;;23.88;100.00;99868.45;1746813;81;21086;-61
2022/07/03 14:10:54;;;;;;;7.67;4.40;;;;;;;23.88;100.00;99865.67;1740565;81;21042;-62
2022/07/03 14:13:21;;;;;;;6.03;4.25;;;;;;;23.93;100.00;99858.44;1755352;80;21090;-61
2022/07/03 14:15:49;;;;;;;12.28;4.45;;;;;;;23.96;100.00;99849.38;1696017;82;21057;-64
2022/07/03 14:18:16;;;;;;;7.22;5.12;;;;;;;23.96;100.00;99853.55;1711965;82;21055;-65
2022/07/03 14:20:43;;;;;;;8.25;6.60;;;;;;;23.97;100.00;99857.38;1717553;82;20960;-63
2022/07/03 14:23:09;;;;;;;14.58;7.53;;;;;;;23.94;100.00;99852.54;1697222;83;21677;-62
2022/07/03 14:25:37;;;;;;;8.83;6.30;;;;;;;23.89;100.00;99842.25;1713688;82;21018;-63
2022/07/03 14:33:20;;;;;;;6.80;3.90;;;;;;;23.91;100.00;99832.98;1683984;82;21624;-64
2022/07/03 14:35:47;;;;;;;8.43;4.83;;;;;;;23.97;100.00;99827.38;1717352;82;21026;-62
2022/07/03 14:38:14;;;;;;;8.83;5.87;;;;;;;24.02;100.00;99835.46;1701881;84;21075;-63